Time;durP1;ratioP1;P1;durP2;ratioP2;P2;SDS_P1;SDS_P2;PMS_P1;PMS_P2;Temp;Humidity;BMP_temperature;BMP_pressure;BME280_temperature;BME280_humidity;BME280_pressure;Samples;Min_cycle;Max_cycle;Signal;HPM_P1;HPM_P2
2021/01/24 00:01:06;;;;;;;47.10;26.47;;;;;;;;;;5087528;28;20187;-72
2021/01/24 00:03:32;;;;;;;41.80;26.07;;;;;;;;;;5083796;28;20188;-71
2021/01/24 00:05:57;;;;;;;42.53;26.03;;;;;;;;;;5060458;28;20615;-71
2021/01/24 00:08:22;;;;;;;38.57;24.13;;;;;;;;;;5083120;28;20188;-71
2021/01/24 00:10:48;;;;;;;41.67;23.83;;;;;;;;;;5075020;28;20195;-71
2021/01/24 00:13:13;;;;;;;48.13;25.10;;;;;;;;;;5083656;28;20265;-71
2021/01/24 00:15:38;;;;;;;43.27;24.67;;;;;;;;;;5072721;28;20199;-71
2021/01/24 00:18:04;;;;;;;41.23;24.20;;;;;;;;;;5084456;28;20195;-71
2021/01/24 00:20:29;;;;;;;41.87;23.93;;;;;;;;;;5076372;28;20176;-71
2021/01/24 00:22:55;;;;;;;44.00;25.40;;;;;;;;;;5083619;28;20681;-71
2021/01/24 00:25:20;;;;;;;45.67;24.77;;;;;;;;;;5078234;28;20192;-71
2021/01/24 00:27:45;;;;;;;44.23;24.83;;;;;;;;;;5084732;28;20184;-71
2021/01/24 00:30:11;;;;;;;47.13;25.23;;;;;;;;;;5081127;28;20549;-71
2021/01/24 00:32:37;;;;;;;45.70;25.27;;;;;;;;;;5082919;28;20192;-71
2021/01/24 00:35:04;;;;;;;46.30;26.20;;;;;;;;;;5088324;28;20192;-71
2021/01/24 00:37:29;;;;;;;45.07;25.97;;;;;;;;;;5078045;28;20700;-71
2021/01/24 00:39:54;;;;;;;46.13;24.90;;;;;;;;;;5091221;28;20231;-71
2021/01/24 00:42:20;;;;;;;42.90;25.77;;;;;;;;;;5079186;28;20188;-71
2021/01/24 00:44:45;;;;;;;44.60;25.73;;;;;;;;;;5092699;28;20186;-71
2021/01/24 00:47:10;;;;;;;42.67;25.33;;;;;;;;;;5081587;28;20515;-71
2021/01/24 00:49:36;;;;;;;42.07;25.47;;;;;;;;;;5091348;28;20199;-71
2021/01/24 00:52:01;;;;;;;42.10;25.10;;;;;;;;;;5079666;28;20208;-71
2021/01/24 00:54:27;;;;;;;46.33;25.87;;;;;;;;;;5091845;28;20320;-71
2021/01/24 00:56:53;;;;;;;49.57;27.30;;;;;;;;;;5080248;28;20868;-71
2021/01/24 00:59:18;;;;;;;46.63;27.03;;;;;;;;;;5092118;28;20685;-71
2021/01/24 01:01:43;;;;;;;50.77;28.17;;;;;;;;;;5080656;28;20218;-71
2021/01/24 01:04:09;;;;;;;50.53;27.63;;;;;;;;;;5088648;28;20223;-71
2021/01/24 01:06:34;;;;;;;47.33;28.70;;;;;;;;;;5088219;28;20758;-71
2021/01/24 01:08:59;;;;;;;47.77;27.10;;;;;;;;;;5065199;28;20666;-71
2021/01/24 01:11:25;;;;;;;47.00;28.23;;;;;;;;;;5086746;28;20184;-71
2021/01/24 01:13:50;;;;;;;45.47;27.93;;;;;;;;;;5081578;28;20199;-71
2021/01/24 01:16:16;;;;;;;46.63;28.40;;;;;;;;;;5091047;28;20234;-71
2021/01/24 01:18:41;;;;;;;52.57;27.97;;;;;;;;;;5081320;28;20195;-71
2021/01/24 01:21:06;;;;;;;45.73;25.87;;;;;;;;;;5089932;28;20294;-71
2021/01/24 01:23:32;;;;;;;48.03;24.10;;;;;;;;;;5079907;28;20663;-71
2021/01/24 01:25:57;;;;;;;50.30;26.83;;;;;;;;;;5089197;28;20653;-71
2021/01/24 01:28:23;;;;;;;48.17;25.30;;;;;;;;;;5078485;28;20204;-71
2021/01/24 01:30:48;;;;;;;48.33;26.23;;;;;;;;;;5089187;28;20239;-71
2021/01/24 01:33:14;;;;;;;44.33;25.30;;;;;;;;;;5088410;28;20210;-71
2021/01/24 01:35:40;;;;;;;42.73;24.90;;;;;;;;;;5081023;28;20241;-71
2021/01/24 01:38:05;;;;;;;49.67;25.67;;;;;;;;;;5090195;28;20188;-71
2021/01/24 01:40:31;;;;;;;47.80;25.50;;;;;;;;;;5080006;28;20214;-71
2021/01/24 01:42:59;;;;;;;50.33;26.30;;;;;;;;;;5092151;28;20180;-71
2021/01/24 01:45:24;;;;;;;48.60;24.97;;;;;;;;;;5079566;28;20184;-71
2021/01/24 01:47:52;;;;;;;44.90;23.60;;;;;;;;;;5088357;28;20847;-71
2021/01/24 01:50:19;;;;;;;38.23;21.77;;;;;;;;;;5081225;28;20649;-71
2021/01/24 01:52:44;;;;;;;39.07;21.53;;;;;;;;;;5068133;28;20260;-71
2021/01/24 01:55:10;;;;;;;39.67;20.40;;;;;;;;;;5079094;28;20624;-71
2021/01/24 01:57:36;;;;;;;42.27;21.13;;;;;;;;;;5087627;28;20192;-71
2021/01/24 02:00:03;;;;;;;34.30;18.17;;;;;;;;;;5081559;28;20253;-71
2021/01/24 02:02:40;;;;;;;39.97;19.07;;;;;;;;;;5088373;28;20663;-71
2021/01/24 02:05:30;;;;;;;30.20;14.40;;;;;;;;;;5078720;28;20200;-71
2021/01/24 02:08:05;;;;;;;32.40;16.23;;;;;;;;;;5089215;28;20667;-70
2021/01/24 02:10:59;;;;;;;33.47;16.47;;;;;;;;;;5079331;28;20595;-71
2021/01/24 02:13:46;;;;;;;30.03;14.87;;;;;;;;;;5085874;28;20296;-71
2021/01/24 02:16:15;;;;;;;31.40;15.63;;;;;;;;;;5074825;28;20183;-71
2021/01/24 02:18:44;;;;;;;33.17;15.27;;;;;;;;;;5086617;28;20223;-71
2021/01/24 02:21:22;;;;;;;33.10;14.97;;;;;;;;;;5074961;28;20200;-71
2021/01/24 02:23:49;;;;;;;28.80;14.60;;;;;;;;;;5068466;28;20696;-72
2021/01/24 02:26:26;;;;;;;31.20;14.03;;;;;;;;;;5063600;28;20196;-71
2021/01/24 02:28:58;;;;;;;24.93;13.33;;;;;;;;;;5088674;28;20198;-71
2021/01/24 02:31:26;;;;;;;26.27;14.40;;;;;;;;;;5080069;28;20194;-71
2021/01/24 02:33:52;;;;;;;25.33;14.20;;;;;;;;;;5087292;28;20562;-71
2021/01/24 02:36:20;;;;;;;25.77;13.43;;;;;;;;;;5089605;28;20217;-72
2021/01/24 02:38:46;;;;;;;28.97;13.87;;;;;;;;;;5078403;28;20757;-71
2021/01/24 02:41:12;;;;;;;28.83;14.67;;;;;;;;;;5070946;28;20280;-71
2021/01/24 02:43:43;;;;;;;31.43;15.20;;;;;;;;;;5079844;28;20240;-72
2021/01/24 02:46:09;;;;;;;39.23;18.77;;;;;;;;;;5087468;28;20241;-71
2021/01/24 02:48:34;;;;;;;36.40;19.07;;;;;;;;;;5077085;28;20195;-71
2021/01/24 02:51:00;;;;;;;38.07;19.50;;;;;;;;;;5088833;28;20548;-72
2021/01/24 02:53:26;;;;;;;38.27;19.07;;;;;;;;;;5080310;28;20282;-72
2021/01/24 02:55:52;;;;;;;35.63;17.90;;;;;;;;;;5088201;28;20188;-72
2021/01/24 02:58:17;;;;;;;30.10;17.13;;;;;;;;;;5080720;28;20670;-72
2021/01/24 03:00:43;;;;;;;30.93;16.10;;;;;;;;;;5086588;28;20191;-72
2021/01/24 03:03:08;;;;;;;30.30;16.63;;;;;;;;;;5062739;28;24122;-72
2021/01/24 03:05:33;;;;;;;23.93;14.03;;;;;;;;;;5087746;28;20215;-72
2021/01/24 03:07:59;;;;;;;24.93;13.93;;;;;;;;;;5087605;28;20180;-72
2021/01/24 03:10:25;;;;;;;26.10;13.30;;;;;;;;;;5063647;28;20184;-72
2021/01/24 03:13:05;;;;;;;23.87;12.67;;;;;;;;;;5063759;28;20196;-72
2021/01/24 03:15:31;;;;;;;18.27;10.67;;;;;;;;;;5075228;28;20239;-71
2021/01/24 03:17:58;;;;;;;18.00;9.70;;;;;;;;;;5089370;28;20506;-71
2021/01/24 03:20:26;;;;;;;16.60;9.93;;;;;;;;;;5078599;28;20594;-72
2021/01/24 03:22:52;;;;;;;16.03;9.13;;;;;;;;;;5084855;28;20230;-72
2021/01/24 03:25:18;;;;;;;18.60;9.50;;;;;;;;;;5075503;28;20192;-72
2021/01/24 03:27:44;;;;;;;16.07;9.00;;;;;;;;;;5070846;28;20175;-72
2021/01/24 03:30:11;;;;;;;17.43;9.20;;;;;;;;;;5078844;28;20245;-71
2021/01/24 03:32:37;;;;;;;17.33;9.30;;;;;;;;;;5086197;28;20208;-71
2021/01/24 03:35:03;;;;;;;16.97;9.23;;;;;;;;;;5079603;28;20195;-71
2021/01/24 03:37:28;;;;;;;17.97;10.10;;;;;;;;;;5086866;28;20241;-72
2021/01/24 03:39:53;;;;;;;19.80;9.30;;;;;;;;;;5053112;28;20612;-72
2021/01/24 03:42:18;;;;;;;19.53;9.80;;;;;;;;;;5089132;28;20199;-71
2021/01/24 03:44:44;;;;;;;19.47;9.77;;;;;;;;;;5086926;28;20557;-72
2021/01/24 03:47:11;;;;;;;33.10;12.33;;;;;;;;;;5079370;28;20195;-72
2021/01/24 03:49:37;;;;;;;19.40;10.43;;;;;;;;;;5085909;28;20183;-72
2021/01/24 03:52:02;;;;;;;16.70;11.03;;;;;;;;;;5077878;28;20184;-71
2021/01/24 03:54:27;;;;;;;20.43;11.30;;;;;;;;;;5086451;28;20248;-71
2021/01/24 03:56:53;;;;;;;25.87;12.33;;;;;;;;;;5059054;28;20197;-71
2021/01/24 03:59:18;;;;;;;25.53;13.50;;;;;;;;;;5086512;28;20254;-72
2021/01/24 04:01:44;;;;;;;29.50;13.67;;;;;;;;;;5077899;28;20198;-71
2021/01/24 04:04:09;;;;;;;27.27;13.20;;;;;;;;;;5085432;28;20286;-71
2021/01/24 04:06:34;;;;;;;28.47;15.40;;;;;;;;;;5079495;28;20288;-72
2021/01/24 04:09:00;;;;;;;41.13;17.13;;;;;;;;;;5085406;28;20198;-71
2021/01/24 04:11:25;;;;;;;31.97;16.20;;;;;;;;;;5074334;28;20222;-72
2021/01/24 04:13:50;;;;;;;30.03;17.00;;;;;;;;;;5082511;28;20210;-72
2021/01/24 04:16:16;;;;;;;37.03;20.80;;;;;;;;;;5089244;28;20263;-72
2021/01/24 04:18:41;;;;;;;41.63;20.77;;;;;;;;;;5075077;28;20267;-72
2021/01/24 04:21:06;;;;;;;41.40;23.40;;;;;;;;;;5088488;28;20176;-72
2021/01/24 04:23:32;;;;;;;48.03;23.70;;;;;;;;;;5060673;28;20550;-72
2021/01/24 04:25:58;;;;;;;47.53;25.57;;;;;;;;;;5070520;28;20516;-71
2021/01/24 04:28:24;;;;;;;50.33;27.47;;;;;;;;;;5076726;28;20621;-72
2021/01/24 04:30:49;;;;;;;48.70;27.70;;;;;;;;;;5087339;28;20172;-72
2021/01/24 04:33:15;;;;;;;59.30;29.67;;;;;;;;;;5076863;28;20218;-72
2021/01/24 04:35:40;;;;;;;53.47;29.13;;;;;;;;;;5068399;28;20297;-72
2021/01/24 04:38:06;;;;;;;51.40;28.10;;;;;;;;;;5075489;28;20188;-72
2021/01/24 04:40:31;;;;;;;45.33;27.60;;;;;;;;;;5068279;28;20270;-72
2021/01/24 04:42:56;;;;;;;53.63;27.33;;;;;;;;;;5054446;28;20246;-71
2021/01/24 04:45:22;;;;;;;47.67;26.13;;;;;;;;;;5067106;28;20180;-71
2021/01/24 04:47:48;;;;;;;48.57;26.90;;;;;;;;;;5062307;28;20552;-72
2021/01/24 04:50:14;;;;;;;48.17;25.07;;;;;;;;;;5059705;28;20199;-71
2021/01/24 04:52:41;;;;;;;46.97;26.23;;;;;;;;;;5063946;28;20668;-71
2021/01/24 04:55:07;;;;;;;51.50;27.47;;;;;;;;;;5039380;28;20207;-71
2021/01/24 04:57:33;;;;;;;43.47;24.37;;;;;;;;;;5065899;28;20181;-71
2021/01/24 04:59:58;;;;;;;50.27;26.00;;;;;;;;;;5039109;28;20286;-72
2021/01/24 05:02:25;;;;;;;46.87;24.47;;;;;;;;;;5063667;28;20500;-72
2021/01/24 05:04:50;;;;;;;47.93;25.47;;;;;;;;;;5058560;28;20192;-72
2021/01/24 05:07:16;;;;;;;45.60;24.53;;;;;;;;;;5063213;28;20188;-72
2021/01/24 05:09:41;;;;;;;47.50;23.77;;;;;;;;;;5059594;28;20208;-72
2021/01/24 05:12:10;;;;;;;46.53;24.20;;;;;;;;;;5063838;28;20213;-72
2021/01/24 05:14:35;;;;;;;43.83;23.90;;;;;;;;;;5057133;28;20193;-72
2021/01/24 05:17:01;;;;;;;42.47;22.80;;;;;;;;;;5045823;28;20197;-72
2021/01/24 05:19:26;;;;;;;41.47;21.73;;;;;;;;;;5057384;28;20647;-72
2021/01/24 05:21:52;;;;;;;45.37;23.60;;;;;;;;;;5044127;28;20193;-72
2021/01/24 05:24:19;;;;;;;45.80;22.80;;;;;;;;;;5068501;28;20184;-72
2021/01/24 05:26:47;;;;;;;39.20;20.90;;;;;;;;;;5060163;28;20216;-72
2021/01/24 05:29:19;;;;;;;44.87;23.03;;;;;;;;;;5070354;28;20269;-72
2021/01/24 05:31:46;;;;;;;45.73;22.80;;;;;;;;;;5059335;28;20188;-72
2021/01/24 05:34:14;;;;;;;44.20;23.03;;;;;;;;;;5070778;28;20200;-72
2021/01/24 05:36:42;;;;;;;42.37;21.10;;;;;;;;;;5058944;28;20185;-72
2021/01/24 05:39:08;;;;;;;40.53;21.00;;;;;;;;;;5060736;28;20224;-72
2021/01/24 05:41:34;;;;;;;38.23;20.20;;;;;;;;;;5077277;28;20196;-72
2021/01/24 05:43:59;;;;;;;43.57;21.93;;;;;;;;;;5091248;28;20641;-72
2021/01/24 05:46:32;;;;;;;40.53;20.23;;;;;;;;;;5059387;28;20223;-72
2021/01/24 05:48:58;;;;;;;37.70;19.37;;;;;;;;;;5089264;28;20194;-72
2021/01/24 05:51:23;;;;;;;43.90;20.70;;;;;;;;;;5080034;28;20192;-72
2021/01/24 05:53:49;;;;;;;39.60;18.70;;;;;;;;;;5087700;28;20207;-72
2021/01/24 05:56:20;;;;;;;34.73;18.93;;;;;;;;;;5081383;28;20172;-72
2021/01/24 05:58:51;;;;;;;33.20;18.23;;;;;;;;;;5071552;28;20241;-72
2021/01/24 06:01:21;;;;;;;39.10;19.10;;;;;;;;;;5092408;28;20656;-72
2021/01/24 06:03:47;;;;;;;34.83;18.10;;;;;;;;;;5084347;28;20188;-72
2021/01/24 06:06:16;;;;;;;35.20;18.03;;;;;;;;;;5088491;28;20231;-72
2021/01/24 06:08:42;;;;;;;38.20;17.60;;;;;;;;;;5078024;28;20241;-71
2021/01/24 06:11:08;;;;;;;37.03;19.00;;;;;;;;;;5088099;28;20639;-71
2021/01/24 06:13:34;;;;;;;34.70;18.77;;;;;;;;;;5060251;28;20235;-71
2021/01/24 06:16:11;;;;;;;35.40;19.80;;;;;;;;;;5080921;28;20182;-71
2021/01/24 06:18:59;;;;;;;35.13;19.10;;;;;;;;;;5057485;28;20609;-71
2021/01/24 06:21:33;;;;;;;48.73;21.03;;;;;;;;;;4384902;28;10000746;-71
2021/01/24 06:24:17;;;;;;;41.63;18.77;;;;;;;;;;5070267;28;20210;-72
2021/01/24 06:26:46;;;;;;;41.47;20.03;;;;;;;;;;5084950;28;20262;-72
2021/01/24 06:29:12;;;;;;;35.03;18.97;;;;;;;;;;5075584;28;20195;-72
2021/01/24 06:31:49;;;;;;;41.77;19.53;;;;;;;;;;5066370;28;20172;-72
2021/01/24 06:34:15;;;;;;;42.30;18.93;;;;;;;;;;5053086;28;20211;-72
2021/01/24 06:37:14;;;;;;;38.03;18.93;;;;;;;;;;5083003;28;20191;-72
2021/01/24 06:39:48;;;;;;;41.40;18.00;;;;;;;;;;5044622;28;20229;-72
2021/01/24 06:42:34;;;;;;;34.70;19.40;;;;;;;;;;5063834;28;20697;-72
2021/01/24 06:44:59;;;;;;;34.67;17.87;;;;;;;;;;5058363;28;20235;-72
2021/01/24 06:47:41;;;;;;;41.80;18.33;;;;;;;;;;5067325;28;20667;-72
2021/01/24 06:50:40;;;;;;;30.80;16.23;;;;;;;;;;5039168;28;20261;-72
2021/01/24 06:53:13;;;;;;;30.43;15.27;;;;;;;;;;5043281;28;20218;-72
2021/01/24 06:55:51;;;;;;;31.13;14.97;;;;;;;;;;5056022;28;20186;-71
2021/01/24 06:58:32;;;;;;;26.03;14.17;;;;;;;;;;5055180;28;20645;-71
2021/01/24 07:01:22;;;;;;;32.03;15.47;;;;;;;;;;5041056;28;20200;-71
2021/01/24 07:04:17;;;;;;;32.57;14.73;;;;;;;;;;5065030;28;20291;-71
2021/01/24 07:06:42;;;;;;;29.60;14.50;;;;;;;;;;5046198;28;20231;-71
2021/01/24 07:09:27;;;;;;;25.80;13.83;;;;;;;;;;5065879;28;20184;-71
2021/01/24 07:11:53;;;;;;;33.30;13.93;;;;;;;;;;5054564;28;20195;-71
2021/01/24 07:14:34;;;;;;;27.37;14.07;;;;;;;;;;5057192;28;20197;-71
2021/01/24 07:17:07;;;;;;;27.33;14.27;;;;;;;;;;5052969;28;20200;-71
2021/01/24 07:19:35;;;;;;;28.97;14.37;;;;;;;;;;5054927;28;20181;-72
2021/01/24 07:22:03;;;;;;;30.07;14.20;;;;;;;;;;5051104;28;20602;-70
2021/01/24 07:24:30;;;;;;;31.50;14.07;;;;;;;;;;5062771;28;20215;-71
2021/01/24 07:26:55;;;;;;;32.50;14.87;;;;;;;;;;5053579;28;20189;-71
2021/01/24 07:29:22;;;;;;;34.03;14.47;;;;;;;;;;5061863;28;20199;-71
2021/01/24 07:31:47;;;;;;;40.37;14.10;;;;;;;;;;5038877;28;20714;-71
2021/01/24 07:34:13;;;;;;;30.77;13.43;;;;;;;;;;5064028;28;20212;-72
2021/01/24 07:36:41;;;;;;;31.37;13.67;;;;;;;;;;5055331;28;20189;-71
2021/01/24 07:39:06;;;;;;;26.03;12.63;;;;;;;;;;5069649;28;20418;-71
2021/01/24 07:41:32;;;;;;;25.40;11.90;;;;;;;;;;5064991;28;20283;-71
2021/01/24 07:43:58;;;;;;;25.80;11.47;;;;;;;;;;5063255;28;20205;-71
2021/01/24 07:46:23;;;;;;;26.33;11.80;;;;;;;;;;5080473;28;20196;-72
2021/01/24 07:48:49;;;;;;;26.87;11.70;;;;;;;;;;5072571;28;20266;-72
2021/01/24 07:51:15;;;;;;;25.97;11.97;;;;;;;;;;5078506;28;20194;-71
2021/01/24 07:53:41;;;;;;;24.67;12.00;;;;;;;;;;5070036;28;20219;-72
2021/01/24 07:56:06;;;;;;;27.17;12.17;;;;;;;;;;5076282;28;20760;-72
2021/01/24 07:58:32;;;;;;;29.10;12.50;;;;;;;;;;5069196;28;20188;-71
2021/01/24 08:00:57;;;;;;;26.00;12.40;;;;;;;;;;5079788;28;20853;-71
2021/01/24 08:03:23;;;;;;;30.33;12.27;;;;;;;;;;5045456;28;20941;-72
2021/01/24 08:05:48;;;;;;;27.73;11.93;;;;;;;;;;5077619;28;20208;-71
2021/01/24 08:08:14;;;;;;;23.13;11.10;;;;;;;;;;5068782;28;20187;-72
2021/01/24 08:10:39;;;;;;;25.77;11.97;;;;;;;;;;5073016;28;20203;-71
2021/01/24 08:13:05;;;;;;;24.33;12.00;;;;;;;;;;5073809;28;20618;-72
2021/01/24 08:15:30;;;;;;;27.00;11.57;;;;;;;;;;5079747;28;20216;-70
2021/01/24 08:17:58;;;;;;;26.77;11.10;;;;;;;;;;5082458;28;20664;-72
2021/01/24 08:20:24;;;;;;;26.27;11.63;;;;;;;;;;5070038;28;20596;-71
2021/01/24 08:22:50;;;;;;;28.03;10.73;;;;;;;;;;5082458;28;20184;-71
2021/01/24 08:25:16;;;;;;;28.93;11.90;;;;;;;;;;5048264;28;20187;-71
2021/01/24 08:27:45;;;;;;;25.50;12.20;;;;;;;;;;5081915;28;20553;-73
2021/01/24 08:30:11;;;;;;;26.70;11.17;;;;;;;;;;5071299;28;20249;-72
2021/01/24 08:32:39;;;;;;;23.70;11.37;;;;;;;;;;5081871;28;20528;-72
2021/01/24 08:35:05;;;;;;;23.97;11.07;;;;;;;;;;5071480;28;20532;-72
2021/01/24 08:37:31;;;;;;;19.97;9.70;;;;;;;;;;5081371;28;20180;-72
2021/01/24 08:39:57;;;;;;;24.33;11.00;;;;;;;;;;5073358;28;20652;-72
2021/01/24 08:42:22;;;;;;;25.53;11.10;;;;;;;;;;5082883;28;20189;-71
2021/01/24 08:44:58;;;;;;;24.20;11.17;;;;;;;;;;5075014;28;20203;-72
2021/01/24 08:47:24;;;;;;;20.33;9.60;;;;;;;;;;5082711;28;20179;-72
2021/01/24 08:50:01;;;;;;;19.93;10.33;;;;;;;;;;5080950;28;20548;-72
2021/01/24 08:52:27;;;;;;;30.40;14.67;;;;;;;;;;5073694;28;20226;-71
2021/01/24 08:55:00;;;;;;;24.03;11.27;;;;;;;;;;5080369;28;20271;-72
2021/01/24 08:57:31;;;;;;;21.00;10.83;;;;;;;;;;5073657;28;20179;-72
2021/01/24 09:00:00;;;;;;;25.20;11.00;;;;;;;;;;5066373;28;20504;-72
2021/01/24 09:02:37;;;;;;;36.30;18.90;;;;;;;;;;5079896;28;20314;-71
2021/01/24 09:05:06;;;;;;;22.17;10.77;;;;;;;;;;5086986;28;20598;-71
2021/01/24 09:07:38;;;;;;;25.03;11.37;;;;;;;;;;5073111;28;20203;-72
2021/01/24 09:10:24;;;;;;;22.53;10.80;;;;;;;;;;5081691;28;20191;-71
2021/01/24 09:12:55;;;;;;;19.13;9.93;;;;;;;;;;5075397;28;20253;-72
2021/01/24 09:15:21;;;;;;;20.60;9.53;;;;;;;;;;5061939;28;20222;-72
2021/01/24 09:17:54;;;;;;;21.17;8.00;;;;;;;;;;5074587;28;21035;-71
2021/01/24 09:20:20;;;;;;;17.47;7.90;;;;;;;;;;5081483;28;20679;-72
2021/01/24 09:22:47;;;;;;;15.37;7.13;;;;;;;;;;5074429;28;20621;-72
2021/01/24 09:25:12;;;;;;;16.50;7.47;;;;;;;;;;5085437;28;20250;-71
2021/01/24 09:27:38;;;;;;;16.10;8.17;;;;;;;;;;5072342;28;20718;-72
2021/01/24 09:30:09;;;;;;;15.53;8.47;;;;;;;;;;5082910;28;20595;-70
2021/01/24 09:32:34;;;;;;;13.10;6.93;;;;;;;;;;5071129;28;20214;-71
2021/01/24 09:35:00;;;;;;;13.10;6.50;;;;;;;;;;5084926;28;20200;-71
2021/01/24 09:37:25;;;;;;;12.17;6.13;;;;;;;;;;5085530;28;20192;-71
2021/01/24 09:39:51;;;;;;;9.00;5.10;;;;;;;;;;5073619;28;20311;-73
2021/01/24 09:42:17;;;;;;;13.77;5.73;;;;;;;;;;5082243;28;20184;-71
2021/01/24 09:44:42;;;;;;;10.73;5.80;;;;;;;;;;5072281;28;20307;-73
2021/01/24 09:47:08;;;;;;;11.33;5.10;;;;;;;;;;5083849;28;20209;-71
2021/01/24 09:49:33;;;;;;;8.90;4.77;;;;;;;;;;5077663;28;20199;-71
2021/01/24 09:51:58;;;;;;;9.60;4.17;;;;;;;;;;5067507;28;20192;-71
2021/01/24 09:54:24;;;;;;;8.93;4.67;;;;;;;;;;5073931;28;20203;-71
2021/01/24 09:56:49;;;;;;;9.70;4.80;;;;;;;;;;5079074;28;20195;-72
2021/01/24 09:59:15;;;;;;;11.67;5.83;;;;;;;;;;5050477;28;20191;-71
2021/01/24 10:01:44;;;;;;;8.00;5.07;;;;;;;;;;5080797;28;20227;-71
2021/01/24 10:04:10;;;;;;;8.50;4.17;;;;;;;;;;5074132;28;20659;-71
2021/01/24 10:06:36;;;;;;;6.33;3.57;;;;;;;;;;5077684;28;20207;-71
2021/01/24 10:09:02;;;;;;;9.17;3.93;;;;;;;;;;5080991;28;20172;-72
2021/01/24 10:11:27;;;;;;;7.57;3.70;;;;;;;;;;5076615;28;20195;-72
2021/01/24 10:13:52;;;;;;;7.87;5.13;;;;;;;;;;5078055;28;20202;-70
2021/01/24 10:16:18;;;;;;;7.37;4.20;;;;;;;;;;5070636;28;20868;-72
2021/01/24 10:18:43;;;;;;;7.97;4.50;;;;;;;;;;5085955;28;21206;-71
2021/01/24 10:21:08;;;;;;;8.83;4.50;;;;;;;;;;5076622;28;20641;-71
2021/01/24 10:23:34;;;;;;;5.97;3.17;;;;;;;;;;5079356;28;20186;-72
2021/01/24 10:26:00;;;;;;;9.07;3.53;;;;;;;;;;5073955;28;20705;-70
2021/01/24 10:28:25;;;;;;;8.50;3.60;;;;;;;;;;5085397;28;20639;-72
2021/01/24 10:30:52;;;;;;;8.53;3.60;;;;;;;;;;5072169;28;21100;-71
2021/01/24 10:33:17;;;;;;;8.23;3.47;;;;;;;;;;5081789;28;20212;-71
2021/01/24 10:35:43;;;;;;;5.37;3.10;;;;;;;;;;5075499;28;20184;-71
2021/01/24 10:38:09;;;;;;;7.67;3.00;;;;;;;;;;5085557;28;20655;-71
2021/01/24 10:40:38;;;;;;;5.53;3.13;;;;;;;;;;5084506;28;20188;-71
2021/01/24 10:43:04;;;;;;;6.70;2.47;;;;;;;;;;5082323;28;20635;-71
2021/01/24 10:45:33;;;;;;;6.07;2.77;;;;;;;;;;5061547;28;20219;-71
2021/01/24 10:47:59;;;;;;;6.77;2.00;;;;;;;;;;5059275;28;20188;-72
2021/01/24 10:50:25;;;;;;;3.80;1.90;;;;;;;;;;5084817;28;20751;-71
2021/01/24 10:52:51;;;;;;;3.67;2.03;;;;;;;;;;5076556;28;20207;-71
2021/01/24 10:55:16;;;;;;;4.83;1.70;;;;;;;;;;5082550;28;20196;-71
2021/01/24 10:57:42;;;;;;;5.47;1.93;;;;;;;;;;5075573;28;20772;-71
2021/01/24 11:00:08;;;;;;;4.70;1.70;;;;;;;;;;5081829;28;20250;-71
2021/01/24 11:02:33;;;;;;;3.77;1.80;;;;;;;;;;5075621;28;20575;-71
2021/01/24 11:04:59;;;;;;;5.13;2.00;;;;;;;;;;5085452;28;20212;-71
2021/01/24 11:07:25;;;;;;;6.23;2.17;;;;;;;;;;5074408;28;20643;-72
2021/01/24 11:09:50;;;;;;;6.40;2.07;;;;;;;;;;5084719;28;20188;-71
2021/01/24 11:12:15;;;;;;;4.83;1.43;;;;;;;;;;5092107;28;20207;-71
2021/01/24 11:14:42;;;;;;;3.37;1.70;;;;;;;;;;5073703;28;20184;-71
2021/01/24 11:17:08;;;;;;;8.87;3.00;;;;;;;;;;5066906;28;20191;-71
2021/01/24 11:19:33;;;;;;;5.13;1.40;;;;;;;;;;5074121;28;20667;-72
2021/01/24 11:21:58;;;;;;;6.47;2.87;;;;;;;;;;5078267;28;20199;-71
2021/01/24 11:24:24;;;;;;;3.57;1.40;;;;;;;;;;5070396;28;20500;-71
2021/01/24 11:26:50;;;;;;;4.10;1.80;;;;;;;;;;5081620;28;20627;-71
2021/01/24 11:29:16;;;;;;;5.67;1.53;;;;;;;;;;5051744;28;20212;-72
2021/01/24 11:31:41;;;;;;;5.40;2.23;;;;;;;;;;5081107;28;20218;-71
2021/01/24 11:34:06;;;;;;;4.13;1.83;;;;;;;;;;5070027;28;20297;-71
2021/01/24 11:36:32;;;;;;;3.43;1.47;;;;;;;;;;5085931;28;20216;-71
2021/01/24 11:38:57;;;;;;;5.03;2.13;;;;;;;;;;5049744;28;20284;-72
2021/01/24 11:41:23;;;;;;;6.90;1.67;;;;;;;;;;5063791;28;20183;-72
2021/01/24 11:43:48;;;;;;;8.90;2.03;;;;;;;;;;5077499;28;20188;-72
2021/01/24 11:46:13;;;;;;;2.90;1.30;;;;;;;;;;5071371;28;20184;-72
2021/01/24 11:48:39;;;;;;;5.57;1.27;;;;;;;;;;5081613;28;20203;-72
2021/01/24 11:51:05;;;;;;;2.20;1.00;;;;;;;;;;5074967;28;20833;-72
2021/01/24 11:53:30;;;;;;;3.90;1.30;;;;;;;;;;5083901;28;20207;-71
2021/01/24 11:55:55;;;;;;;2.33;1.10;;;;;;;;;;5074400;28;20548;-71
2021/01/24 11:58:21;;;;;;;3.73;1.10;;;;;;;;;;5064646;28;20722;-72
2021/01/24 12:00:47;;;;;;;5.73;1.10;;;;;;;;;;5062636;28;20210;-72
2021/01/24 12:03:12;;;;;;;6.60;1.10;;;;;;;;;;5073929;28;20188;-72
2021/01/24 12:05:38;;;;;;;2.83;1.10;;;;;;;;;;5066933;28;20214;-72
2021/01/24 12:08:05;;;;;;;5.77;1.27;;;;;;;;;;5076355;28;20526;-72
2021/01/24 12:10:30;;;;;;;5.07;1.60;;;;;;;;;;5071620;28;20184;-72
2021/01/24 12:12:55;;;;;;;2.13;0.93;;;;;;;;;;5073559;28;20272;-72
2021/01/24 12:15:21;;;;;;;2.87;1.03;;;;;;;;;;5075474;28;20541;-72
2021/01/24 12:17:46;;;;;;;7.83;1.27;;;;;;;;;;5071175;28;20192;-72
2021/01/24 12:20:12;;;;;;;3.20;1.17;;;;;;;;;;5078808;28;20184;-72
2021/01/24 12:22:38;;;;;;;2.67;1.00;;;;;;;;;;5070195;28;20179;-72
2021/01/24 12:25:04;;;;;;;2.30;0.93;;;;;;;;;;5085107;28;20674;-72
2021/01/24 12:27:29;;;;;;;2.30;1.10;;;;;;;;;;5075928;28;20240;-72
2021/01/24 12:29:54;;;;;;;2.30;0.90;;;;;;;;;;5086821;28;20542;-72
2021/01/24 12:32:20;;;;;;;2.47;0.60;;;;;;;;;;5069349;28;20184;-72
2021/01/24 12:34:45;;;;;;;2.63;0.90;;;;;;;;;;5084834;28;20183;-72
2021/01/24 12:37:10;;;;;;;1.27;0.53;;;;;;;;;;5077021;28;20188;-72
2021/01/24 12:39:36;;;;;;;2.37;0.70;;;;;;;;;;5080046;28;20264;-72
2021/01/24 12:42:01;;;;;;;6.20;1.20;;;;;;;;;;5075475;28;20191;-72
2021/01/24 12:44:26;;;;;;;3.00;0.70;;;;;;;;;;5086496;28;20198;-72
2021/01/24 12:46:52;;;;;;;2.10;0.50;;;;;;;;;;5086375;28;20229;-72
2021/01/24 12:49:17;;;;;;;4.43;0.67;;;;;;;;;;5078544;28;20192;-72
2021/01/24 12:51:42;;;;;;;6.07;0.70;;;;;;;;;;5082537;28;20196;-72
2021/01/24 12:54:09;;;;;;;2.90;0.90;;;;;;;;;;5078417;28;20260;-72
2021/01/24 12:56:34;;;;;;;5.43;0.60;;;;;;;;;;5078489;28;20176;-72
2021/01/24 12:58:59;;;;;;;3.13;0.60;;;;;;;;;;5058657;28;20550;-72
2021/01/24 13:01:25;;;;;;;2.00;0.40;;;;;;;;;;5082460;28;20179;-72
2021/01/24 13:03:50;;;;;;;4.43;0.60;;;;;;;;;;5073790;28;20179;-72
2021/01/24 13:06:15;;;;;;;2.53;0.80;;;;;;;;;;5082481;28;20200;-72
2021/01/24 13:08:40;;;;;;;3.77;0.80;;;;;;;;;;5066863;28;20341;-72
2021/01/24 13:11:06;;;;;;;2.80;1.00;;;;;;;;;;5084303;28;20187;-72
2021/01/24 13:13:31;;;;;;;0.93;0.40;;;;;;;;;;5060821;28;20212;-72
2021/01/24 13:15:56;;;;;;;4.23;0.70;;;;;;;;;;5081847;28;20191;-72
2021/01/24 13:18:22;;;;;;;3.37;0.50;;;;;;;;;;5081711;28;20202;-72
2021/01/24 13:20:47;;;;;;;1.27;0.53;;;;;;;;;;5073382;28;20548;-72
2021/01/24 13:23:12;;;;;;;2.13;0.60;;;;;;;;;;5079519;28;20183;-72
2021/01/24 13:25:38;;;;;;;2.33;0.70;;;;;;;;;;5072952;28;20185;-72
2021/01/24 13:28:03;;;;;;;2.47;0.80;;;;;;;;;;5066003;28;20187;-71
2021/01/24 13:30:29;;;;;;;4.37;0.67;;;;;;;;;;5073779;28;20199;-71
2021/01/24 13:32:54;;;;;;;2.47;0.50;;;;;;;;;;5080766;28;20228;-71
2021/01/24 13:35:20;;;;;;;2.40;0.80;;;;;;;;;;4370417;28;10001409;-71
2021/01/24 13:37:45;;;;;;;1.50;0.60;;;;;;;;;;5083958;28;20214;-71
2021/01/24 13:40:11;;;;;;;3.83;0.50;;;;;;;;;;5071485;28;20224;-70
2021/01/24 13:42:36;;;;;;;2.00;0.43;;;;;;;;;;5086202;28;20191;-71
2021/01/24 13:45:03;;;;;;;0.83;0.20;;;;;;;;;;5080893;28;20199;-70
2021/01/24 13:47:28;;;;;;;3.47;0.40;;;;;;;;;;5088714;28;20179;-70
2021/01/24 13:49:53;;;;;;;2.67;0.50;;;;;;;;;;5084336;28;20901;-71
2021/01/24 13:52:19;;;;;;;1.70;0.47;;;;;;;;;;5081728;28;20265;-71
2021/01/24 13:54:45;;;;;;;1.60;0.40;;;;;;;;;;5083391;28;20184;-71
2021/01/24 13:57:11;;;;;;;1.57;0.33;;;;;;;;;;5079091;28;20191;-71
2021/01/24 13:59:36;;;;;;;1.63;0.40;;;;;;;;;;5084422;28;20180;-71
2021/01/24 14:02:01;;;;;;;3.67;0.70;;;;;;;;;;5082913;28;20200;-71
2021/01/24 14:04:26;;;;;;;3.17;0.53;;;;;;;;;;5085691;28;20650;-71
2021/01/24 14:06:52;;;;;;;6.07;0.63;;;;;;;;;;5076107;28;20208;-71
2021/01/24 14:09:17;;;;;;;1.37;0.40;;;;;;;;;;5087268;28;20265;-70
2021/01/24 14:11:43;;;;;;;4.27;0.60;;;;;;;;;;5078220;28;20698;-71
2021/01/24 14:14:08;;;;;;;3.90;0.70;;;;;;;;;;5067799;28;20686;-71
2021/01/24 14:16:33;;;;;;;2.23;0.50;;;;;;;;;;5088704;28;20231;-71
2021/01/24 14:18:59;;;;;;;3.60;0.70;;;;;;;;;;5074020;28;20184;-71
2021/01/24 14:21:24;;;;;;;4.07;0.50;;;;;;;;;;5082627;28;20185;-71
2021/01/24 14:23:50;;;;;;;5.90;0.90;;;;;;;;;;5079131;28;20188;-71
2021/01/24 14:26:15;;;;;;;2.10;0.80;;;;;;;;;;5085721;28;20191;-71